Time;durP1;ratioP1;P1;durP2;ratioP2;P2;SDS_P1;SDS_P2;PMS_P1;PMS_P2;Temp;Humidity;BMP_temperature;BMP_pressure;BME280_temperature;BME280_humidity;BME280_pressure;Samples;Min_cycle;Max_cycle;Signal;HPM_P1;HPM_P2
2022/09/15 00:01:21;;;;;;;8.60;6.55;;;;;;;18.26;100.00;99349.00;4904005;29;20211;-71
2022/09/15 00:03:48;;;;;;;9.80;6.38;;;;;;;18.20;100.00;99344.13;4896977;29;20412;-71
2022/09/15 00:06:15;;;;;;;11.73;7.30;;;;;;;18.21;100.00;99348.56;4891904;29;20227;-71
2022/09/15 00:08:42;;;;;;;8.70;6.97;;;;;;;18.22;100.00;99343.97;4885643;29;20215;-71
2022/09/15 00:11:12;;;;;;;11.20;6.80;;;;;;;18.19;100.00;99336.09;4879943;29;20582;-72
2022/09/15 00:13:40;;;;;;;8.07;6.70;;;;;;;18.21;100.00;99334.09;4885925;29;20230;-71
2022/09/15 00:16:08;;;;;;;6.90;6.20;;;;;;;18.16;100.00;99334.53;4883012;29;20306;-72
2022/09/15 00:18:36;;;;;;;9.80;6.97;;;;;;;18.17;100.00;99332.66;4881073;29;20229;-71
2022/09/15 00:21:05;;;;;;;8.80;6.90;;;;;;;18.11;100.00;99325.91;4882143;29;20195;-72
2022/09/15 00:23:32;;;;;;;9.65;7.88;;;;;;;18.14;100.00;99328.38;4880922;29;20214;-71
2022/09/15 00:25:59;;;;;;;10.27;8.30;;;;;;;18.02;100.00;99324.03;4879902;29;20219;-71
2022/09/15 00:28:25;;;;;;;9.18;7.80;;;;;;;17.97;100.00;99320.91;4890845;29;20217;-71
2022/09/15 00:30:54;;;;;;;8.70;7.60;;;;;;;17.92;100.00;99319.47;4879243;29;20212;-71
2022/09/15 00:33:22;;;;;;;9.50;8.23;;;;;;;17.93;100.00;99320.31;4885199;29;20630;-71
2022/09/15 00:35:51;;;;;;;8.43;7.13;;;;;;;17.97;100.00;99329.94;4882553;29;20232;-72
2022/09/15 00:38:19;;;;;;;10.07;8.52;;;;;;;17.91;100.00;99328.66;4884339;29;20203;-71
2022/09/15 00:40:48;;;;;;;10.55;7.90;;;;;;;17.83;100.00;99308.56;4885078;29;20203;-70
2022/09/15 00:43:15;;;;;;;10.13;8.50;;;;;;;17.75;100.00;99298.38;4881850;29;20294;-70
2022/09/15 00:45:42;;;;;;;9.77;8.15;;;;;;;17.74;100.00;99299.34;4883012;29;20237;-71
2022/09/15 00:48:14;;;;;;;10.75;8.85;;;;;;;17.70;100.00;99297.91;4882813;29;20214;-71
2022/09/15 00:50:43;;;;;;;10.57;9.48;;;;;;;17.64;100.00;99291.19;4887140;29;20198;-72
2022/09/15 00:53:11;;;;;;;12.32;9.18;;;;;;;17.60;100.00;99286.19;4882166;29;20199;-72
2022/09/15 00:55:42;;;;;;;9.88;7.75;;;;;;;17.55;100.00;99278.44;4904850;23;20239;-72
2022/09/15 00:58:11;;;;;;;8.10;6.35;;;;;;;17.55;100.00;99277.53;4885404;29;20206;-72
2022/09/15 01:00:40;;;;;;;8.68;7.10;;;;;;;17.52;100.00;99259.66;4881839;29;20237;-72
2022/09/15 01:03:07;;;;;;;9.13;7.30;;;;;;;17.54;100.00;99259.50;4883749;29;20214;-72
2022/09/15 01:05:41;;;;;;;9.38;8.05;;;;;;;17.51;100.00;99255.22;4877560;29;20226;-72
2022/09/15 01:08:11;;;;;;;11.50;9.25;;;;;;;17.49;100.00;99246.31;4891831;29;20202;-70
2022/09/15 01:10:40;;;;;;;9.98;8.95;;;;;;;17.53;100.00;99249.63;4876783;29;20203;-70
2022/09/15 01:13:08;;;;;;;14.93;9.30;;;;;;;17.48;100.00;99245.47;4880138;29;20199;-71
2022/09/15 01:15:46;;;;;;;13.30;10.25;;;;;;;17.44;100.00;99243.19;4883940;29;20222;-71
2022/09/15 01:18:16;;;;;;;11.20;9.55;;;;;;;17.51;100.00;99238.88;4884527;29;20191;-73
2022/09/15 01:21:01;;;;;;;9.98;7.97;;;;;;;17.48;100.00;99239.19;4877548;29;20552;-70
2022/09/15 01:23:58;;;;;;;12.52;8.07;;;;;;;17.47;100.00;99237.44;4882147;29;20210;-72
2022/09/15 01:26:47;;;;;;;9.50;7.45;;;;;;;17.43;100.00;99238.72;4883937;29;20227;-71
2022/09/15 01:29:52;;;;;;;9.70;8.10;;;;;;;17.40;100.00;99233.56;4802866;29;20206;-71
2022/09/15 01:35:16;;;;;;;10.68;7.88;;;;;;;17.52;100.00;99235.16;4802180;29;20628;-73
2022/09/15 01:37:48;;;;;;;7.70;6.22;;;;;;;17.43;100.00;99234.13;4795326;29;20216;-73
2022/09/15 01:40:17;;;;;;;8.93;7.50;;;;;;;17.41;100.00;99240.72;4809348;29;20230;-72
2022/09/15 01:42:45;;;;;;;11.63;8.02;;;;;;;17.33;100.00;99222.38;4806294;29;20209;-71
2022/09/15 01:45:20;;;;;;;10.68;7.55;;;;;;;17.33;100.00;99224.25;4805500;29;20226;-71
2022/09/15 01:47:49;;;;;;;9.48;7.40;;;;;;;17.31;100.00;99221.66;4810641;29;20236;-70
2022/09/15 01:50:21;;;;;;;9.35;6.63;;;;;;;17.32;100.00;99222.53;4809343;29;20221;-74
2022/09/15 01:52:52;;;;;;;7.72;6.82;;;;;;;17.29;100.00;99224.53;4809042;29;20202;-71
2022/09/15 01:55:23;;;;;;;8.10;6.70;;;;;;;17.35;100.00;99222.25;4808039;29;20696;-71
2022/09/15 01:57:49;;;;;;;10.10;6.85;;;;;;;17.34;100.00;99225.97;4804960;29;20222;-70
2022/09/15 02:00:18;;;;;;;7.10;6.35;;;;;;;17.34;100.00;99221.38;4803684;29;20231;-73
2022/09/15 02:02:50;;;;;;;9.77;6.43;;;;;;;17.34;100.00;99228.69;4810798;29;20213;-71
2022/09/15 02:05:24;;;;;;;8.40;6.28;;;;;;;17.30;100.00;99222.69;4807806;29;20233;-71
2022/09/15 02:07:55;;;;;;;5.85;4.90;;;;;;;17.31;100.00;99221.66;4888053;29;20203;-71
2022/09/15 02:10:29;;;;;;;5.47;4.25;;;;;;;17.24;100.00;99226.81;4883514;29;20290;-71
2022/09/15 02:13:02;;;;;;;5.88;4.32;;;;;;;17.22;100.00;99222.53;4883519;29;20241;-72
2022/09/15 02:15:34;;;;;;;4.47;3.83;;;;;;;17.18;100.00;99221.94;4879846;29;20917;-71
2022/09/15 02:18:03;;;;;;;5.13;3.42;;;;;;;17.02;100.00;99233.34;4883559;29;20670;-71
2022/09/15 02:20:38;;;;;;;4.32;3.47;;;;;;;17.01;100.00;99228.06;4879568;29;20240;-71
2022/09/15 02:23:09;;;;;;;5.35;3.70;;;;;;;17.09;100.00;99236.38;4880511;29;20264;-71
2022/09/15 02:25:42;;;;;;;4.05;3.50;;;;;;;17.07;100.00;99230.22;4875871;29;20226;-71
2022/09/15 02:28:12;;;;;;;4.05;3.25;;;;;;;17.03;100.00;99232.38;4888128;29;20616;-71
2022/09/15 02:30:45;;;;;;;4.00;2.95;;;;;;;16.97;100.00;99235.63;4882403;29;20202;-70
2022/09/15 02:33:16;;;;;;;4.05;2.95;;;;;;;16.95;100.00;99236.78;4880227;29;20222;-71
2022/09/15 02:35:43;;;;;;;3.45;3.15;;;;;;;16.88;100.00;99233.75;4877239;29;20223;-71
2022/09/15 02:38:12;;;;;;;3.40;3.03;;;;;;;16.92;100.00;99231.63;4888013;29;20202;-71
2022/09/15 02:40:41;;;;;;;6.00;3.78;;;;;;;16.89;100.00;99232.72;4893847;29;20234;-71
2022/09/15 02:43:11;;;;;;;7.72;3.92;;;;;;;16.91;100.00;99235.31;4881141;29;20287;-70
2022/09/15 02:45:40;;;;;;;4.10;3.65;;;;;;;16.90;100.00;99228.19;4885734;29;20305;-74
2022/09/15 02:48:08;;;;;;;4.82;3.42;;;;;;;16.88;100.00;99236.47;4884005;29;20563;-75
2022/09/15 02:50:35;;;;;;;4.13;3.72;;;;;;;16.83;100.00;99231.44;4877660;29;20226;-72
2022/09/15 02:53:02;;;;;;;5.50;4.07;;;;;;;16.82;100.00;99239.72;4882884;29;20203;-72
2022/09/15 02:55:29;;;;;;;7.20;5.22;;;;;;;16.84;100.00;99235.00;4885130;29;20243;-72
2022/09/15 02:57:55;;;;;;;7.00;5.07;;;;;;;16.86;100.00;99235.75;4885153;29;20304;-72
2022/09/15 03:00:22;;;;;;;5.30;4.40;;;;;;;16.80;100.00;99239.00;4882696;29;20234;-71
2022/09/15 03:02:52;;;;;;;6.70;5.13;;;;;;;16.79;100.00;99238.16;4886350;29;20596;-71
2022/09/15 03:05:22;;;;;;;5.55;4.45;;;;;;;16.77;100.00;99242.81;4879674;29;20235;-71
2022/09/15 03:07:48;;;;;;;6.10;5.03;;;;;;;16.75;100.00;99244.81;4890566;29;20581;-71
2022/09/15 03:10:16;;;;;;;5.63;4.50;;;;;;;16.64;100.00;99256.69;4883243;29;20214;-71
2022/09/15 03:12:44;;;;;;;4.75;4.00;;;;;;;16.63;100.00;99260.38;4889689;29;20317;-71
2022/09/15 03:15:13;;;;;;;4.88;3.35;;;;;;;16.57;100.00;99257.34;4884122;29;20232;-71
2022/09/15 03:17:41;;;;;;;5.40;3.60;;;;;;;16.54;100.00;99254.91;4879785;29;20595;-72
2022/09/15 03:20:11;;;;;;;5.50;4.50;;;;;;;16.45;100.00;99262.84;4886493;29;20223;-73
2022/09/15 03:22:38;;;;;;;5.65;4.15;;;;;;;16.41;100.00;99261.41;4872312;29;20202;-72
2022/09/15 03:25:06;;;;;;;5.65;4.50;;;;;;;16.42;100.00;99267.72;4886312;29;20222;-71
2022/09/15 03:27:33;;;;;;;4.93;4.43;;;;;;;16.44;100.00;99254.84;4882201;29;20209;-71
2022/09/15 03:30:00;;;;;;;8.25;5.80;;;;;;;16.39;100.00;99266.13;4887325;29;20513;-70
2022/09/15 03:32:27;;;;;;;8.48;6.15;;;;;;;16.42;100.00;99268.56;4884160;29;20207;-70
2022/09/15 03:34:54;;;;;;;45.00;29.60;;;;;;;16.42;100.00;99265.84;4884242;29;20580;-71
2022/09/15 03:37:21;;;;;;;10.48;7.88;;;;;;;16.49;100.00;99271.63;4884794;29;20218;-71
2022/09/15 03:39:48;;;;;;;7.60;6.25;;;;;;;16.50;100.00;99276.03;4873192;29;20227;-72
2022/09/15 03:42:15;;;;;;;7.78;6.60;;;;;;;16.53;100.00;99274.91;4877550;29;20211;-72
2022/09/15 03:44:42;;;;;;;9.77;7.10;;;;;;;16.54;100.00;99282.06;4884616;29;20581;-71
2022/09/15 03:47:08;;;;;;;8.90;6.38;;;;;;;16.50;100.00;99291.50;4882306;29;20239;-71
2022/09/15 03:49:35;;;;;;;12.45;7.18;;;;;;;16.50;100.00;99291.50;4882146;29;20559;-73
2022/09/15 03:52:02;;;;;;;7.88;6.13;;;;;;;16.56;100.00;99293.69;4878020;29;20203;-72
2022/09/15 03:54:30;;;;;;;11.45;7.95;;;;;;;16.54;100.00;99298.38;4884536;29;20230;-72
2022/09/15 03:56:56;;;;;;;9.65;7.10;;;;;;;16.65;100.00;99295.59;4882148;29;20313;-71
2022/09/15 03:59:23;;;;;;;11.13;7.50;;;;;;;16.61;100.00;99302.28;4885386;29;20214;-71
2022/09/15 04:01:50;;;;;;;10.60;7.93;;;;;;;16.58;100.00;99297.97;4874450;29;20211;-70
2022/09/15 04:04:17;;;;;;;10.15;7.80;;;;;;;16.62;100.00;99312.13;4877125;29;20299;-73
2022/09/15 04:06:44;;;;;;;12.18;8.38;;;;;;;16.64;100.00;99311.03;4881927;29;20229;-72
2022/09/15 04:09:11;;;;;;;9.27;7.10;;;;;;;16.57;100.00;99314.41;4885419;29;20272;-72
2022/09/15 04:11:39;;;;;;;10.45;7.25;;;;;;;16.60;100.00;99327.75;4882216;29;20207;-73
2022/09/15 04:14:06;;;;;;;10.73;7.03;;;;;;;16.64;100.00;99332.78;4886899;29;20195;-71
2022/09/15 04:16:33;;;;;;;13.10;7.57;;;;;;;16.60;100.00;99335.91;4887047;29;20216;-72
2022/09/15 04:18:59;;;;;;;7.43;6.38;;;;;;;16.59;100.00;99340.44;4885145;29;20271;-73
2022/09/15 04:21:27;;;;;;;9.70;6.60;;;;;;;16.63;100.00;99346.50;4887378;29;20235;-71
2022/09/15 04:23:54;;;;;;;7.85;7.00;;;;;;;16.60;100.00;99352.22;4875937;29;20214;-72
2022/09/15 04:26:24;;;;;;;9.13;7.40;;;;;;;16.61;100.00;99365.66;4894811;29;20233;-70
2022/09/15 04:28:52;;;;;;;15.40;9.05;;;;;;;16.61;100.00;99367.50;4885166;29;20214;-71
2022/09/15 04:31:19;;;;;;;18.13;13.35;;;;;;;16.57;100.00;99369.63;4880872;29;20203;-70
2022/09/15 04:33:46;;;;;;;13.90;10.48;;;;;;;16.63;100.00;99384.56;4878098;29;20200;-71
2022/09/15 04:36:15;;;;;;;10.75;8.63;;;;;;;16.47;100.00;99391.31;4884448;29;20635;-72
2022/09/15 04:38:42;;;;;;;13.35;8.85;;;;;;;16.53;100.00;99403.53;4888357;29;20212;-71
2022/09/15 04:41:09;;;;;;;10.38;8.20;;;;;;;16.61;100.00;99408.28;4895236;29;20222;-70
2022/09/15 04:43:35;;;;;;;12.20;8.82;;;;;;;16.61;100.00;99411.00;4878896;29;20211;-72
2022/09/15 04:46:04;;;;;;;11.30;8.05;;;;;;;16.59;100.00;99416.56;4884466;29;20223;-73
2022/09/15 04:48:31;;;;;;;8.55;7.60;;;;;;;16.46;100.00;99422.19;4891152;29;20255;-73
2022/09/15 04:51:01;;;;;;;11.57;6.75;;;;;;;16.40;100.00;99428.16;4886807;29;20247;-69
2022/09/15 04:53:27;;;;;;;8.18;5.90;;;;;;;16.24;100.00;99430.44;4885943;29;20268;-72
2022/09/15 04:56:01;;;;;;;6.65;4.93;;;;;;;16.20;100.00;99431.69;4887748;29;20230;-71
2022/09/15 04:58:28;;;;;;;9.57;5.47;;;;;;;16.13;100.00;99433.22;4880319;29;20214;-72
2022/09/15 05:00:54;;;;;;;6.28;5.68;;;;;;;16.18;100.00;99433.69;4884036;29;20231;-72
2022/09/15 05:03:22;;;;;;;8.25;5.55;;;;;;;16.17;100.00;99438.25;4886438;29;20298;-72
2022/09/15 05:05:49;;;;;;;10.77;7.72;;;;;;;16.22;100.00;99436.00;4885909;29;20223;-71
2022/09/15 05:08:15;;;;;;;8.90;6.68;;;;;;;16.25;100.00;99443.03;4885845;29;20210;-72
2022/09/15 05:10:42;;;;;;;6.57;5.10;;;;;;;16.25;100.00;99441.16;4882432;29;20666;-70
2022/09/15 05:13:08;;;;;;;7.63;5.90;;;;;;;16.32;100.00;99440.66;4866073;29;20214;-72
2022/09/15 05:15:35;;;;;;;6.55;5.78;;;;;;;16.36;100.00;99434.84;4879079;29;20231;-72
2022/09/15 05:18:01;;;;;;;8.93;6.55;;;;;;;16.42;100.00;99438.91;4881147;29;20218;-73
2022/09/15 05:20:29;;;;;;;7.35;6.40;;;;;;;16.41;100.00;99446.16;4881843;29;20288;-71
2022/09/15 05:22:56;;;;;;;10.85;6.00;;;;;;;16.46;100.00;99443.06;4869428;29;20208;-70
2022/09/15 05:25:22;;;;;;;9.90;6.40;;;;;;;16.45;100.00;99441.34;4878145;29;20328;-72
2022/09/15 05:27:49;;;;;;;13.38;9.07;;;;;;;16.45;100.00;99446.78;4879401;29;20283;-71
2022/09/15 05:30:16;;;;;;;7.20;6.43;;;;;;;16.50;100.00;99440.94;4883742;29;20211;-73
2022/09/15 05:32:42;;;;;;;7.88;6.03;;;;;;;16.46;100.00;99454.81;4891288;29;20211;-73
2022/09/15 05:35:09;;;;;;;9.55;5.57;;;;;;;16.50;100.00;99452.69;4899968;29;20848;-72
2022/09/15 05:37:37;;;;;;;8.30;5.85;;;;;;;16.51;100.00;99450.81;4879046;29;20207;-72
2022/09/15 05:40:04;;;;;;;12.18;9.77;;;;;;;16.58;100.00;99461.06;4880767;29;20222;-70
2022/09/15 05:42:31;;;;;;;8.80;6.10;;;;;;;16.62;100.00;99461.63;4877129;29;20217;-72
2022/09/15 05:44:58;;;;;;;8.65;5.57;;;;;;;16.66;100.00;99469.44;4882512;29;20346;-73
2022/09/15 05:47:24;;;;;;;8.23;5.35;;;;;;;16.67;100.00;99460.25;4881443;29;20204;-75
2022/09/15 05:49:53;;;;;;;8.48;5.60;;;;;;;16.70;100.00;99456.41;4880257;29;20218;-75
2022/09/15 05:52:20;;;;;;;5.45;4.50;;;;;;;16.71;100.00;99458.16;4876286;29;20215;-72
2022/09/15 05:54:48;;;;;;;10.43;4.60;;;;;;;16.69;100.00;99446.56;4892473;29;20209;-72
2022/09/15 05:57:14;;;;;;;9.20;5.00;;;;;;;16.79;100.00;99452.94;4897318;29;20215;-73
2022/09/15 05:59:42;;;;;;;6.63;4.63;;;;;;;16.85;100.00;99451.56;4897326;29;20233;-73
2022/09/15 06:02:09;;;;;;;6.40;4.22;;;;;;;16.83;100.00;99448.97;4896833;29;20317;-73
2022/09/15 06:04:36;;;;;;;8.23;4.03;;;;;;;16.86;100.00;99448.69;4878626;29;20226;-72
2022/09/15 06:07:02;;;;;;;14.02;4.78;;;;;;;16.91;100.00;99453.72;4879217;29;20227;-72
2022/09/15 06:09:29;;;;;;;10.20;4.50;;;;;;;16.88;100.00;99448.56;4878897;29;20207;-75
2022/09/15 06:11:57;;;;;;;7.45;4.47;;;;;;;16.87;100.00;99455.88;4882351;29;20204;-72
2022/09/15 06:14:23;;;;;;;4.75;3.95;;;;;;;16.81;100.00;99450.94;4898630;29;20212;-71
2022/09/15 06:16:50;;;;;;;5.25;4.10;;;;;;;16.81;100.00;99447.38;4901485;29;20231;-72
2022/09/15 06:19:16;;;;;;;7.15;4.40;;;;;;;16.84;100.00;99447.94;4910174;29;20229;-73
2022/09/15 06:21:43;;;;;;;4.65;3.92;;;;;;;16.90;100.00;99445.72;4902067;29;20598;-72
2022/09/15 06:24:12;;;;;;;10.07;4.60;;;;;;;17.00;100.00;99452.06;4901218;29;20217;-71
2022/09/15 06:26:38;;;;;;;4.97;4.35;;;;;;;16.97;100.00;99455.06;4900755;29;20230;-74
2022/09/15 06:29:06;;;;;;;4.68;3.90;;;;;;;17.04;100.00;99458.97;4900616;29;20222;-71
2022/09/15 06:31:34;;;;;;;6.25;3.65;;;;;;;17.04;100.00;99467.97;4902081;29;20203;-73
2022/09/15 06:34:02;;;;;;;7.07;4.22;;;;;;;17.11;100.00;99464.75;4906732;29;20309;-73
2022/09/15 06:36:30;;;;;;;6.05;4.20;;;;;;;17.26;100.00;99466.97;4900769;29;20235;-73
2022/09/15 06:38:58;;;;;;;6.15;3.88;;;;;;;17.33;100.00;99461.00;4903126;29;20592;-72
2022/09/15 06:41:24;;;;;;;7.38;4.35;;;;;;;17.34;100.00;99460.00;4901920;29;20230;-73
2022/09/15 06:43:51;;;;;;;6.90;3.70;;;;;;;17.34;100.00;99457.25;4900438;29;20305;-71
2022/09/15 06:46:21;;;;;;;6.35;4.00;;;;;;;17.42;100.00;99455.59;4900398;29;20262;-74
2022/09/15 06:48:50;;;;;;;4.78;3.90;;;;;;;17.49;100.00;99454.03;4900458;29;20202;-72
2022/09/15 06:51:18;;;;;;;8.55;3.97;;;;;;;17.45;100.00;99466.19;4900457;29;20247;-72
2022/09/15 06:53:45;;;;;;;5.30;3.20;;;;;;;17.57;100.00;99452.50;4891510;29;20200;-72
2022/09/15 06:56:14;;;;;;;6.43;3.65;;;;;;;17.60;100.00;99457.69;4883141;29;20234;-72
2022/09/15 06:58:41;;;;;;;6.03;3.15;;;;;;;17.65;100.00;99455.41;4882299;29;20203;-73
2022/09/15 07:01:11;;;;;;;5.70;3.80;;;;;;;17.56;100.00;99458.94;4882164;29;20263;-72
2022/09/15 07:03:40;;;;;;;5.05;3.42;;;;;;;17.56;100.00;99462.53;4881079;29;20227;-73
2022/09/15 07:06:08;;;;;;;6.70;3.28;;;;;;;17.56;100.00;99464.38;4881947;29;20235;-73
2022/09/15 07:08:35;;;;;;;4.43;3.25;;;;;;;17.57;100.00;99466.97;4881797;29;20204;-73
2022/09/15 07:11:02;;;;;;;12.45;3.20;;;;;;;17.52;100.00;99463.78;4865986;29;20208;-71
2022/09/15 07:13:28;;;;;;;4.10;2.92;;;;;;;17.59;100.00;99464.09;4881712;29;20211;-72
2022/09/15 07:15:57;;;;;;;7.25;3.10;;;;;;;17.70;100.00;99470.34;4881438;29;20622;-72
2022/09/15 07:18:24;;;;;;;5.90;3.35;;;;;;;17.80;100.00;99477.66;4881632;29;20207;-71
2022/09/15 07:20:52;;;;;;;5.35;3.55;;;;;;;17.79;100.00;99487.69;4882125;29;20227;-72
2022/09/15 07:23:19;;;;;;;6.60;3.40;;;;;;;17.90;100.00;99479.44;4880718;29;20212;-72
2022/09/15 07:25:45;;;;;;;5.30;3.40;;;;;;;18.08;100.00;99479.63;4881429;29;20317;-72
2022/09/15 07:28:13;;;;;;;6.43;3.40;;;;;;;18.35;100.00;99491.72;4882802;29;20597;-73
2022/09/15 07:30:40;;;;;;;5.03;3.10;;;;;;;18.51;100.00;99486.56;4883881;29;20210;-72
2022/09/15 07:33:06;;;;;;;4.83;3.40;;;;;;;18.59;100.00;99490.44;4881754;29;20215;-73
2022/09/15 07:35:33;;;;;;;5.03;2.90;;;;;;;18.52;100.00;99487.44;4881385;29;20476;-73
2022/09/15 07:38:01;;;;;;;7.77;4.20;;;;;;;18.53;100.00;99491.88;4882791;29;20448;-73
2022/09/15 07:40:27;;;;;;;4.45;3.13;;;;;;;18.67;100.00;99487.88;4886039;29;20481;-73
2022/09/15 07:42:54;;;;;;;5.77;2.83;;;;;;;18.84;100.00;99484.47;4889004;29;20241;-71
2022/09/15 07:45:21;;;;;;;4.60;2.40;;;;;;;19.02;100.00;99489.19;4894135;29;20823;-72
2022/09/15 07:47:47;;;;;;;3.55;2.72;;;;;;;19.14;100.00;99494.31;4881794;29;20538;-72
2022/09/15 07:50:14;;;;;;;4.43;2.80;;;;;;;19.32;100.00;99496.28;4882319;29;20612;-72
2022/09/15 07:52:40;;;;;;;6.30;2.70;;;;;;;19.45;100.00;99496.84;4882243;29;20899;-73
2022/09/15 07:55:09;;;;;;;4.17;2.73;;;;;;;19.58;100.00;99494.63;4881955;29;20487;-73
2022/09/15 07:57:35;;;;;;;6.47;2.50;;;;;;;19.57;100.00;99497.50;4881986;29;20432;-71
2022/09/15 08:00:03;;;;;;;3.37;2.07;;;;;;;19.72;100.00;99501.50;4881426;29;20483;-73
2022/09/15 08:02:30;;;;;;;3.73;2.10;;;;;;;19.98;100.00;99509.00;4882496;29;20746;-72
2022/09/15 08:04:57;;;;;;;5.67;2.30;;;;;;;20.23;97.52;99510.16;4882617;29;20454;-73
2022/09/15 08:07:24;;;;;;;3.17;1.97;;;;;;;20.18;92.22;99518.81;4882876;29;20495;-72
2022/09/15 08:09:50;;;;;;;3.20;2.33;;;;;;;20.25;91.42;99518.22;4884193;29;20458;-71
2022/09/15 08:12:18;;;;;;;4.40;1.87;;;;;;;20.12;89.96;99527.63;4883543;29;20448;-73
2022/09/15 08:14:45;;;;;;;5.20;2.20;;;;;;;20.15;90.46;99532.81;4882947;29;20451;-71
2022/09/15 08:17:11;;;;;;;2.30;2.10;;;;;;;20.11;89.43;99527.78;4882128;29;20472;-72
2022/09/15 08:19:38;;;;;;;2.90;1.97;;;;;;;20.02;89.22;99535.03;4883651;29;20826;-73
2022/09/15 08:22:04;;;;;;;2.93;2.20;;;;;;;20.16;91.40;99534.50;4884223;29;20492;-72
2022/09/15 08:24:31;;;;;;;3.57;2.27;;;;;;;20.41;91.02;99534.78;4883338;29;20482;-73
2022/09/15 08:26:57;;;;;;;6.47;2.07;;;;;;;20.83;85.05;99535.09;4884728;29;21068;-72
2022/09/15 08:29:25;;;;;;;3.30;1.80;;;;;;;21.19;79.36;99539.69;4883207;29;20453;-73
2022/09/15 08:31:51;;;;;;;4.90;1.97;;;;;;;21.51;74.30;99551.94;4883649;29;20821;-72
2022/09/15 08:34:18;;;;;;;4.43;2.10;;;;;;;22.03;72.59;99546.41;4882078;29;20452;-72
2022/09/15 08:36:45;;;;;;;2.73;1.90;;;;;;;22.31;70.76;99548.94;4891124;29;20478;-72
2022/09/15 08:39:11;;;;;;;6.40;2.00;;;;;;;22.68;68.79;99552.16;4887105;29;20458;-72
2022/09/15 08:41:41;;;;;;;3.67;1.80;;;;;;;22.95;62.51;99550.16;4881814;29;20498;-72
2022/09/15 08:44:22;;;;;;;3.17;1.60;;;;;;;22.95;66.15;99561.13;4881402;29;20836;-73
2022/09/15 08:46:53;;;;;;;3.47;1.87;;;;;;;23.01;63.86;99557.72;4882232;29;20466;-72
2022/09/15 08:49:26;;;;;;;3.23;1.50;;;;;;;23.01;61.78;99559.59;4881649;29;20428;-72
2022/09/15 08:51:53;;;;;;;3.00;2.00;;;;;;;23.36;63.60;99560.28;4883233;29;20794;-72
2022/09/15 08:54:22;;;;;;;6.07;2.07;;;;;;;23.28;63.20;99567.50;4881156;29;20447;-72
2022/09/15 08:56:50;;;;;;;3.17;1.67;;;;;;;23.26;65.67;99558.56;4882126;29;20486;-71
2022/09/15 08:59:18;;;;;;;4.63;1.97;;;;;;;23.94;64.80;99556.44;4881603;29;20823;-72
2022/09/15 09:02:05;;;;;;;4.37;2.00;;;;;;;24.81;59.56;99569.34;4881185;29;20524;-74
2022/09/15 09:05:09;;;;;;;4.03;1.77;;;;;;;25.41;56.01;99560.25;4881727;29;20440;-73
2022/09/15 09:07:52;;;;;;;3.70;1.57;;;;;;;25.23;56.03;99560.59;4879492;29;20459;-71
2022/09/15 09:10:28;;;;;;;3.97;1.77;;;;;;;25.18;58.10;99571.28;4880253;29;20547;-72
2022/09/15 09:13:09;;;;;;;2.70;2.03;;;;;;;24.09;63.68;99565.69;4880923;29;20446;-72
2022/09/15 09:15:49;;;;;;;4.67;2.40;;;;;;;23.86;66.40;99568.34;4882199;29;20468;-72
2022/09/15 09:18:32;;;;;;;3.83;2.80;;;;;;;23.75;66.82;99571.44;4882577;29;20454;-72
2022/09/15 09:21:08;;;;;;;4.93;2.60;;;;;;;23.79;67.64;99572.81;4882592;29;20448;-72
2022/09/15 09:23:49;;;;;;;3.57;1.97;;;;;;;24.48;65.62;99569.50;4882531;29;20461;-71
2022/09/15 09:26:16;;;;;;;2.80;2.50;;;;;;;24.62;62.82;99568.72;4882951;29;20523;-71
2022/09/15 09:28:49;;;;;;;3.93;2.33;;;;;;;24.97;59.50;99564.56;4881692;29;20447;-72
2022/09/15 09:31:20;;;;;;;6.70;2.27;;;;;;;25.23;56.01;99568.00;4882368;29;20432;-72
2022/09/15 09:33:52;;;;;;;5.10;2.33;;;;;;;25.58;56.13;99559.06;4902468;29;20424;-71
2022/09/15 09:36:19;;;;;;;3.10;2.30;;;;;;;26.07;55.47;99566.00;4902736;29;20507;-71
2022/09/15 09:38:48;;;;;;;8.13;2.30;;;;;;;25.34;56.46;99565.66;4902718;29;20446;-71
2022/09/15 09:41:18;;;;;;;2.93;2.57;;;;;;;24.96;57.60;99562.84;4902916;29;20424;-71
2022/09/15 09:43:55;;;;;;;3.13;2.00;;;;;;;24.68;58.35;99559.75;4902760;29;20495;-71
2022/09/15 09:46:22;;;;;;;10.83;2.13;;;;;;;25.59;55.81;99568.19;4901893;29;20520;-71
2022/09/15 09:48:55;;;;;;;3.30;2.03;;;;;;;26.80;52.76;99577.16;4898914;29;20499;-73
2022/09/15 09:51:50;;;;;;;4.40;3.13;;;;;;;27.70;49.87;99570.19;4883097;29;20438;-72
2022/09/15 09:54:19;;;;;;;8.27;7.03;;;;;;;28.39;46.14;99577.66;4875619;29;20436;-71
2022/09/15 09:56:47;;;;;;;4.30;2.90;;;;;;;27.76;47.57;99574.06;4885787;29;20859;-71
2022/09/15 09:59:38;;;;;;;3.13;1.90;;;;;;;27.73;47.07;99577.22;4881952;29;20451;-72
2022/09/15 10:02:16;;;;;;;2.60;1.93;;;;;;;26.91;49.30;99576.66;4880872;29;20480;-72
2022/09/15 10:04:46;;;;;;;2.73;1.70;;;;;;;26.51;49.30;99569.78;4880530;29;20992;-74
2022/09/15 10:07:15;;;;;;;2.93;2.00;;;;;;;26.03;51.21;99569.31;4879582;29;20459;-72
2022/09/15 10:09:52;;;;;;;2.20;1.90;;;;;;;27.63;47.49;99567.38;4879432;29;20462;-72
2022/09/15 10:12:25;;;;;;;3.73;2.43;;;;;;;30.51;41.49;99576.19;4880169;29;20424;-73
2022/09/15 10:14:55;;;;;;;2.67;2.13;;;;;;;29.42;42.83;99566.50;4880499;29;20446;-72
2022/09/15 10:17:24;;;;;;;2.67;2.10;;;;;;;30.52;41.10;99563.16;4880945;29;20512;-72
2022/09/15 10:19:54;;;;;;;2.60;2.20;;;;;;;30.53;41.45;99551.81;4879993;29;20443;-72
2022/09/15 10:22:28;;;;;;;4.40;2.40;;;;;;;29.97;42.07;99554.34;4879371;29;20483;-71
2022/09/15 10:24:55;;;;;;;3.47;2.90;;;;;;;30.18;41.21;99569.84;4879901;29;20432;-73
2022/09/15 10:27:29;;;;;;;5.97;2.67;;;;;;;29.53;42.19;99562.22;4880740;29;20918;-71
2022/09/15 10:29:59;;;;;;;3.03;2.63;;;;;;;28.53;43.02;99566.69;4881108;29;20432;-71
2022/09/15 10:32:28;;;;;;;4.00;3.43;;;;;;;26.63;47.63;99557.19;4898769;29;20450;-74
2022/09/15 10:35:06;;;;;;;6.63;3.80;;;;;;;26.54;48.09;99558.34;4899541;29;20995;-72
2022/09/15 10:37:39;;;;;;;5.43;3.70;;;;;;;25.91;49.90;99561.50;4898207;29;20457;-69
2022/09/15 10:40:29;;;;;;;5.53;3.90;;;;;;;26.47;47.74;99558.25;4899282;29;20522;-71
2022/09/15 10:43:05;;;;;;;4.20;3.10;;;;;;;27.31;46.96;99562.41;4900725;29;20470;-72
2022/09/15 10:45:37;;;;;;;8.63;3.20;;;;;;;27.99;45.05;99558.06;4899798;29;20464;-72
2022/09/15 10:48:22;;;;;;;5.37;3.70;;;;;;;27.55;44.25;99559.22;4900258;29;20467;-70
2022/09/15 10:50:55;;;;;;;3.90;3.37;;;;;;;27.79;44.61;99557.03;4902010;29;20792;-73
2022/09/15 10:53:36;;;;;;;4.30;3.87;;;;;;;28.20;43.49;99559.06;4900146;29;20527;-74
2022/09/15 10:56:14;;;;;;;4.00;3.60;;;;;;;29.31;41.47;99561.59;4880325;29;21012;-72
2022/09/15 10:58:55;;;;;;;4.20;3.70;;;;;;;30.01;40.33;99559.22;4882902;29;20508;-72
2022/09/15 11:01:41;;;;;;;3.30;3.00;;;;;;;30.30;39.34;99563.47;4881786;29;20439;-71
2022/09/15 11:04:20;;;;;;;5.50;3.77;;;;;;;31.72;37.09;99563.25;4885401;29;20428;-73
2022/09/15 11:06:54;;;;;;;5.53;4.20;;;;;;;32.28;35.71;99563.38;4882147;29;20774;-73
2022/09/15 11:09:25;;;;;;;4.80;4.23;;;;;;;31.42;37.11;99562.25;4882029;29;20924;-71
2022/09/15 11:12:10;;;;;;;4.83;4.43;;;;;;;30.13;38.54;99548.31;4880993;29;20492;-73
2022/09/15 11:14:52;;;;;;;4.83;4.43;;;;;;;30.22;38.37;99551.69;4881740;29;20450;-73
2022/09/15 11:17:36;;;;;;;5.03;4.53;;;;;;;30.05;38.85;99546.63;4882792;29;20517;-71
2022/09/15 11:20:30;;;;;;;6.97;5.40;;;;;;;28.10;41.38;99562.19;4881506;29;20463;-72
2022/09/15 11:23:02;;;;;;;5.43;4.93;;;;;;;27.71;42.11;99557.22;4879767;29;20487;-71
2022/09/15 11:25:32;;;;;;;6.27;5.40;;;;;;;27.90;42.33;99563.97;4881546;29;20464;-72
2022/09/15 11:28:05;;;;;;;7.50;5.90;;;;;;;27.43;41.77;99563.59;4881148;29;20432;-72
2022/09/15 11:30:35;;;;;;;8.83;5.77;;;;;;;25.67;46.90;99554.34;4884008;29;20452;-71
2022/09/15 11:33:06;;;;;;;8.77;6.83;;;;;;;25.26;49.04;99560.25;4884153;29;20428;-71
2022/09/15 11:35:42;;;;;;;8.53;7.60;;;;;;;24.69;50.48;99566.09;4884311;29;20487;-72
2022/09/15 11:38:25;;;;;;;8.20;7.30;;;;;;;24.28;52.00;99575.38;4884821;29;20511;-73
2022/09/15 11:40:56;;;;;;;9.20;8.30;;;;;;;23.93;53.08;99576.72;4884196;29;20436;-72
2022/09/15 11:43:32;;;;;;;9.20;7.67;;;;;;;23.01;55.70;99576.06;4883549;29;20488;-72